Skip Navigation LinksHome page > Weather > Current weather Skip Navigation Links

Current Weather

Cherry Capital, Traverse City, Mich.

For information only: do not use for flight planning or navigation.
Latest weather
Observation time Friday, May 29, 2020 5:53 PM EDT
Local time Friday, May 29, 2020 6:09 PM EDT
Flight conditions Visual Meteorological Conditions
Winds
Wind direction North-Northwest (330°)
Wind speed 9 mph
Wind gusting to 22 mph
Visibility 10 mi.
Sky condition
Ceiling 8,500 ft. broken clouds
Cloud layer few clouds 2,700 ft.
Cloud layer scattered clouds 3,800 ft.
Cloud layer broken clouds 8,500 ft.
Temperature 65°F
Dewpoint 50°F
Altimeter 29.92 in.Hg
Derived measurements
Relative humidity 58%
Density altitude 1188 ft.
Sea-level pressure 29.92 in.Hg
Remarks
Automated weather observing station with precipitation discriminator.
METAR KTVC 292153Z 33008G19KT 10SM FEW027 SCT038 BKN085 18/10 A2992 RMK AO2 SLP131 T01830100

Settings

Location code

InnerDrive.Weather 4.0.6770.0 Release CLR 4.0.30319.42000
Copyright ©2018 Inner Drive Technology. All rights reserved. Portions Copyright ©1986-2018 David Braverman.

Find weather

Site navigation


Skip Navigation Links

Place info

Page info

PayPal - The safer, easier way to pay online!

Return home.

Copyright ©2020 Inner Drive Technology. Purveyors of fine, hand-crafted computer software. Page printed 2020-05-29T22:09:00 UTC.